METAR Reports

 

KMRH - Beaufort, North Carolina, USA
Distance from station: E 8mi, 12km
Updated: Fri, 18-Jan-2019 6:58am EST
Mist, Partly cloudy
Mist, Partly cloudy
 Wind from calm
Wind: Calm
Temperature: 37°F , 3°C
Dew Point: 37°F , 3°C
Humidity: 100%
Barometer: 30.12 inHg , 1020 hPa
Summary: Mist
Clouds: Partly Cloudy
Visibility: 6 miles , 10 km
Cloud details: Partly Cloudy 7500 ft
2019/01/18 11:58 KMRH 181158Z AUTO 00000KT 6SM BR SCT075 03/03 A3012 RMK AO2 SLP199 60000 T00330028 10067 20033 53002
KEWN - New Bern, North Carolina, USA
Distance from station: NW 33mi, 40km
Updated: Fri, 18-Jan-2019 6:54am EST
Overcast
Overcast
 Wind from calm
Wind: Calm
Temperature: 39°F , 4°C
Dew Point: 39°F , 4°C
Humidity: 100%
Barometer: 30.12 inHg , 1020 hPa
Clouds: Overcast
Visibility: 7 miles , 11 km
Cloud details: Overcast 8000 ft
2019/01/18 11:54 KEWN 181154Z 00000KT 7SM OVC080 04/04 A3012 RMK AO2 SLP200 60001 70005 T00440044 10056 20033 53002
 
KPGV - Greenville, North Carolina, USA
Updated: Fri, 18-Jan-2019 7:35am EST
Mist, Overcast
Mist, Overcast
 Wind from calm
Wind: Calm
Temperature: 41°F , 5°C
Dew Point: 41°F , 5°C
Humidity: 100%
Barometer: 30.13 inHg , 1020.3 hPa
Summary: Mist
Clouds: Overcast
Visibility: 3/4 mile , 5 km
Cloud details: Mostly Cloudy 3500 ft
Overcast 7000 ft
2019/01/18 12:35 KPGV 181235Z AUTO 00000KT 3/4SM BR BKN035 OVC070 05/05 A3013 RMK AO2
KOAJ - Richlands, North Carolina, USA
Updated: Fri, 18-Jan-2019 6:56am EST
Mist, Overcast
Mist, Overcast
 Wind from SSW
Wind: SSW 5 mph , 7 km/h
Temperature: 39°F , 4°C
Wind Chill: 35°F , 2°C
Dew Point: 39°F , 4°C
Humidity: 100%
Barometer: 30.12 inHg , 1020 hPa
Summary: Mist
Clouds: Overcast
Visibility: 5 miles , 8 km
Cloud details: Overcast 4100 ft
2019/01/18 11:56 KOAJ 181156Z 20004KT 5SM BR OVC041 04/04 A3012 RMK AO2 SLP206 60000 70007 T00390039 10061 20022 55001
 
KISO - Kinston, North Carolina, USA
Distance from station: NW 73mi, 87km
Updated: Fri, 18-Jan-2019 6:56am EST
Mist, Overcast
Mist, Overcast
 Wind from calm
Wind: Calm
Temperature: 41°F , 5°C
Dew Point: 41°F , 5°C
Humidity: 100%
Barometer: 30.12 inHg , 1020 hPa
Summary: Mist
Clouds: Overcast
Visibility: 2 miles , 3 km
Cloud details: Overcast 3800 ft
2019/01/18 11:56 KISO 181156Z 00000KT 2SM BR OVC038 05/05 A3012
KHSE - Buxton, North Carolina, USA
Distance from station: NE 89mi, 102km
Updated: Fri, 18-Jan-2019 6:51am EST
Mostly Cloudy
Mostly Cloudy
 Wind from WNW
Wind: WNW 3 mph , 6 km/h
Temperature: 45°F , 7°C
Dew Point: 43°F , 6°C
Humidity: 93%
Barometer: 30.11 inHg , 1019.6 hPa
Clouds: Mostly Cloudy
Visibility: 10 miles , 16 km
Cloud details: Mostly Cloudy 6000 ft
2019/01/18 11:51 KHSE 181151Z AUTO 29003KT 10SM BKN060 07/06 A3011 RMK AO2 SLP195 T00720056 10083 20044 53001 TSNO $
 
KNCA - Jacksonville, North Carolina, USA
Distance from station: SW 48mi, 60km
Updated: Fri, 18-Jan-2019 6:56am EST
Mist, Clear
Mist, Clear
 Wind from calm
Wind: Calm
Temperature: 37°F , 3°C
Dew Point: 36°F , 2°C
Humidity: 93%
Barometer: 30.12 inHg , 1020 hPa
Summary: Mist
Clouds: Clear
Visibility: 6 miles , 10 km
2019/01/18 11:56 KNCA 181156Z AUTO 00000KT 6SM BR CLR 03/02 A3012 RMK AO2 SLP202 T00280022 10067 20028 53001 $
KNKT - Cherry Point, North Carolina, USA
Distance from station: NW 9mi, 12km
Updated: Fri, 18-Jan-2019 7:03am EST
Mist, Partly cloudy
Mist, Partly cloudy
 Wind from calm
Wind: Calm
Temperature: 39°F , 4°C
Dew Point: 39°F , 4°C
Humidity: 100%
Barometer: 30.13 inHg , 1020.3 hPa
Summary: Mist
Clouds: Partly Cloudy
Visibility: 3/4 mile , 5 km
Cloud details: Few Clouds 200 ft
Partly Cloudy 7500 ft
2019/01/18 12:03 KNKT 181203Z 00000KT 3/4SM BR FEW002 SCT075 04/04 A3013 RMK AO2 T00390039 $
 
KOCW - Washington, North Carolina, USA
Distance from station: N 73mi, 87km
Updated: Fri, 18-Jan-2019 7:20am EST
Mist, Clear
Mist, Clear
 Wind from calm
Wind: Calm
Temperature: 39°F , 4°C
Dew Point: 37°F , 3°C
Humidity: 93%
Barometer: 30.12 inHg , 1020 hPa
Summary: Mist
Clouds: Clear
Visibility: 2 1/2 miles , 2 km
2019/01/18 12:20 KOCW 181220Z AUTO 00000KT 2 1/2SM BR CLR 04/03 A3012 RMK AO2 T00380034
KDPL - Kenansville, North Carolina, USA
Distance from station: W 86mi, 98km
Updated: Fri, 18-Jan-2019 7:20am EST
Mist, Overcast
Mist, Overcast
 Wind from SW
Wind: SW 3 mph , 6 km/h
Temperature: 43°F , 6°C
Dew Point: 43°F , 6°C
Humidity: 100%
Barometer: 30.13 inHg , 1020.3 hPa
Summary: Mist
Clouds: Overcast
Visibility: 3 miles , 5 km
Cloud details: Overcast 3700 ft
2019/01/18 12:20 KDPL 181220Z AUTO 23003KT 3SM BR OVC037 06/06 A3013 RMK AO2
 
KMQI - Manteo, North Carolina, USA
Updated: Fri, 18-Jan-2019 7:20am EST
Overcast
Overcast
 Wind from WNW
Wind: WNW 3 mph , 6 km/h
Temperature: 45°F , 7°C
Dew Point: 41°F , 5°C
Humidity: 87%
Barometer: 30.11 inHg , 1019.6 hPa
Clouds: Overcast
Visibility: 10 miles , 16 km
Cloud details: Overcast 5000 ft
2019/01/18 12:20 KMQI 181220Z AUTO 29003KT 10SM OVC050 07/05 A3011 RMK AO2 T00670051
KFFA - Kill Devil Hills, North Carolina, USA
Updated: Fri, 18-Jan-2019 7:20am EST
Overcast
Overcast
 Wind from WSW
Wind: WSW 3 mph , 6 km/h
Temperature: 45°F , 7°C
Dew Point: 41°F , 5°C
Humidity: 87%
Barometer: 30.09 inHg , 1019 hPa
Clouds: Overcast
Visibility: 10 miles , 16 km
Cloud details: Partly Cloudy 2900 ft
Overcast 4800 ft
2019/01/18 12:20 KFFA 181220Z AUTO 25003KT 10SM SCT029 OVC048 07/05 A3009 RMK AO2 T00650047
 
KILM - Wilmington, North Carolina, USA
Updated: Fri, 18-Jan-2019 6:53am EST
Mist, Clear
Mist, Clear
 
Temperature: 37°F , 3°C
Dew Point: 36°F , 2°C
Humidity: 93%
Barometer: 30.13 inHg , 1020.3 hPa
Summary: Mist
Clouds: Clear
Visibility: 3 miles , 5 km
2019/01/18 11:53 KILM 181153Z 3SM BR CLR 03/02 A3013 RMK AO2 TWR VIS 5 SLP202 70012 T00280022 10056 20022 53002 $
KRDU - Raleigh, North Carolina, USA
Updated: Fri, 18-Jan-2019 6:51am EST
Mostly Cloudy
Mostly Cloudy
 Wind from WSW
Wind: WSW 6 mph , 9 km/h
Temperature: 43°F , 6°C
Wind Chill: 39°F , 4°C
Dew Point: 39°F , 4°C
Humidity: 87%
Barometer: 30.10 inHg , 1019.3 hPa
Clouds: Mostly Cloudy
Visibility: 10 miles , 16 km
Cloud details: Few Clouds 1500 ft
Partly Cloudy 6500 ft
Mostly Cloudy 9000 ft
2019/01/18 11:51 KRDU 181151Z 24005KT 10SM FEW015 SCT065 BKN090 06/04 A3010 RMK AO2 SLP192 70001 T00560044 10067 20056 55002